sensor_id;sensor_type;location;lat;lon;timestamp;temperature;humidity
3752;DHT22;50827;47.014;7.652;2023-04-01T00:01:24;8.80;99.90
3752;DHT22;50827;47.014;7.652;2023-04-01T00:03:50;8.80;99.90
3752;DHT22;50827;47.014;7.652;2023-04-01T00:06:18;8.80;99.90
3752;DHT22;50827;47.014;7.652;2023-04-01T00:08:45;8.70;99.90
3752;DHT22;50827;47.014;7.652;2023-04-01T00:11:13;8.70;99.90
3752;DHT22;50827;47.014;7.652;2023-04-01T00:13:39;8.80;99.90
3752;DHT22;50827;47.014;7.652;2023-04-01T00:16:07;8.90;99.90
3752;DHT22;50827;47.014;7.652;2023-04-01T00:18:45;8.90;99.90
3752;DHT22;50827;47.014;7.652;2023-04-01T00:21:13;8.80;99.90
3752;DHT22;50827;47.014;7.652;2023-04-01T00:23:40;8.80;99.90
3752;DHT22;50827;47.014;7.652;2023-04-01T00:26:07;8.70;99.90
3752;DHT22;50827;47.014;7.652;2023-04-01T00:28:34;8.80;99.90
3752;DHT22;50827;47.014;7.652;2023-04-01T00:31:06;8.90;99.90
3752;DHT22;50827;47.014;7.652;2023-04-01T00:33:33;8.80;99.90
3752;DHT22;50827;47.014;7.652;2023-04-01T00:36:15;8.80;99.90
3752;DHT22;50827;47.014;7.652;2023-04-01T00:38:42;8.70;99.90
3752;DHT22;50827;47.014;7.652;2023-04-01T00:41:11;8.70;99.90
3752;DHT22;50827;47.014;7.652;2023-04-01T00:43:46;8.80;99.90
3752;DHT22;50827;47.014;7.652;2023-04-01T00:46:13;8.80;99.90
3752;DHT22;50827;47.014;7.652;2023-04-01T00:48:53;8.80;99.90
3752;DHT22;50827;47.014;7.652;2023-04-01T00:51:24;8.70;99.90
3752;DHT22;50827;47.014;7.652;2023-04-01T00:53:54;8.70;99.90
3752;DHT22;50827;47.014;7.652;2023-04-01T00:56:33;8.60;99.90
3752;DHT22;50827;47.014;7.652;2023-04-01T00:59:05;8.70;99.90
3752;DHT22;50827;47.014;7.652;2023-04-01T01:01:35;8.80;99.90
3752;DHT22;50827;47.014;7.652;2023-04-01T01:04:02;8.70;99.90
3752;DHT22;50827;47.014;7.652;2023-04-01T01:11:50;8.60;99.90
3752;DHT22;50827;47.014;7.652;2023-04-01T01:17:38;8.60;99.90
3752;DHT22;50827;47.014;7.652;2023-04-01T01:26:07;8.70;99.90
3752;DHT22;50827;47.014;7.652;2023-04-01T01:29:15;8.70;99.90
3752;DHT22;50827;47.014;7.652;2023-04-01T01:34:26;8.60;99.90
3752;DHT22;50827;47.014;7.652;2023-04-01T01:37:01;8.70;99.90
3752;DHT22;50827;47.014;7.652;2023-04-01T01:39:31;8.70;99.90
3752;DHT22;50827;47.014;7.652;2023-04-01T01:42:04;8.70;99.90
3752;DHT22;50827;47.014;7.652;2023-04-01T01:44:32;8.60;99.90
3752;DHT22;50827;47.014;7.652;2023-04-01T01:47:00;8.60;99.90
3752;DHT22;50827;47.014;7.652;2023-04-01T01:49:28;8.60;99.90
3752;DHT22;50827;47.014;7.652;2023-04-01T01:51:57;8.60;99.90
3752;DHT22;50827;47.014;7.652;2023-04-01T01:54:23;8.70;99.90
3752;DHT22;50827;47.014;7.652;2023-04-01T01:56:55;8.70;99.90
3752;DHT22;50827;47.014;7.652;2023-04-01T01:59:24;8.80;99.90
3752;DHT22;50827;47.014;7.652;2023-04-01T02:01:55;8.80;99.90
3752;DHT22;50827;47.014;7.652;2023-04-01T02:04:22;8.80;99.90
3752;DHT22;50827;47.014;7.652;2023-04-01T02:07:23;8.80;99.90
3752;DHT22;50827;47.014;7.652;2023-04-01T02:09:52;8.70;99.90
3752;DHT22;50827;47.014;7.652;2023-04-01T02:12:19;8.80;99.90
3752;DHT22;50827;47.014;7.652;2023-04-01T02:15:05;8.80;99.90
3752;DHT22;50827;47.014;7.652;2023-04-01T02:17:34;8.90;99.90
3752;DHT22;50827;47.014;7.652;2023-04-01T02:20:08;8.60;99.90
3752;DHT22;50827;47.014;7.652;2023-04-01T02:22:38;8.70;99.90
3752;DHT22;50827;47.014;7.652;2023-04-01T02:25:10;8.70;99.90
3752;DHT22;50827;47.014;7.652;2023-04-01T02:27:39;8.60;99.90
3752;DHT22;50827;47.014;7.652;2023-04-01T02:30:07;8.60;99.90
3752;DHT22;50827;47.014;7.652;2023-04-01T02:32:35;8.60;99.90
3752;DHT22;50827;47.014;7.652;2023-04-01T02:35:09;8.60;99.90
3752;DHT22;50827;47.014;7.652;2023-04-01T02:37:38;8.60;99.90
3752;DHT22;50827;47.014;7.652;2023-04-01T02:40:08;8.60;99.90
3752;DHT22;50827;47.014;7.652;2023-04-01T02:42:35;8.50;99.90
3752;DHT22;50827;47.014;7.652;2023-04-01T02:45:03;8.50;99.90
3752;DHT22;50827;47.014;7.652;2023-04-01T02:47:30;8.50;99.90
3752;DHT22;50827;47.014;7.652;2023-04-01T02:49:57;8.50;99.90
3752;DHT22;50827;47.014;7.652;2023-04-01T02:52:26;8.50;99.90
3752;DHT22;50827;47.014;7.652;2023-04-01T02:54:53;8.60;99.90
3752;DHT22;50827;47.014;7.652;2023-04-01T02:57:19;8.60;99.90
3752;DHT22;50827;47.014;7.652;2023-04-01T02:59:46;8.50;99.90
3752;DHT22;50827;47.014;7.652;2023-04-01T03:02:14;8.50;99.90
3752;DHT22;50827;47.014;7.652;2023-04-01T03:04:41;8.50;99.90
3752;DHT22;50827;47.014;7.652;2023-04-01T03:07:08;8.60;99.90
3752;DHT22;50827;47.014;7.652;2023-04-01T03:09:37;8.60;99.90
3752;DHT22;50827;47.014;7.652;2023-04-01T03:12:04;8.60;99.90
3752;DHT22;50827;47.014;7.652;2023-04-01T03:14:30;8.60;99.90
3752;DHT22;50827;47.014;7.652;2023-04-01T03:16:57;8.60;99.90
3752;DHT22;50827;47.014;7.652;2023-04-01T03:19:24;8.60;99.90
3752;DHT22;50827;47.014;7.652;2023-04-01T03:21:51;8.60;99.90
3752;DHT22;50827;47.014;7.652;2023-04-01T03:24:17;8.60;99.90
3752;DHT22;50827;47.014;7.652;2023-04-01T03:26:44;8.60;99.90
3752;DHT22;50827;47.014;7.652;2023-04-01T03:29:10;8.60;99.90
3752;DHT22;50827;47.014;7.652;2023-04-01T03:31:37;8.60;99.90
3752;DHT22;50827;47.014;7.652;2023-04-01T03:34:04;8.70;99.90
3752;DHT22;50827;47.014;7.652;2023-04-01T03:36:31;8.50;99.90
3752;DHT22;50827;47.014;7.652;2023-04-01T03:38:57;8.50;99.90
3752;DHT22;50827;47.014;7.652;2023-04-01T03:41:24;8.60;99.90
3752;DHT22;50827;47.014;7.652;2023-04-01T03:43:53;8.70;99.90
3752;DHT22;50827;47.014;7.652;2023-04-01T03:46:20;8.60;99.90
3752;DHT22;50827;47.014;7.652;2023-04-01T03:48:47;8.60;99.90
3752;DHT22;50827;47.014;7.652;2023-04-01T03:51:14;8.70;99.90
3752;DHT22;50827;47.014;7.652;2023-04-01T03:53:41;8.70;99.90
3752;DHT22;50827;47.014;7.652;2023-04-01T03:56:08;8.60;99.90
3752;DHT22;50827;47.014;7.652;2023-04-01T03:58:36;8.60;99.90
3752;DHT22;50827;47.014;7.652;2023-04-01T04:01:03;8.60;99.90
3752;DHT22;50827;47.014;7.652;2023-04-01T04:03:30;8.70;99.90
3752;DHT22;50827;47.014;7.652;2023-04-01T04:05:57;8.70;99.90
3752;DHT22;50827;47.014;7.652;2023-04-01T04:08:24;8.50;99.90
3752;DHT22;50827;47.014;7.652;2023-04-01T04:10:55;8.50;99.90
3752;DHT22;50827;47.014;7.652;2023-04-01T04:13:22;8.40;99.90
3752;DHT22;50827;47.014;7.652;2023-04-01T04:15:49;8.40;99.90
3752;DHT22;50827;47.014;7.652;2023-04-01T04:18:15;8.40;99.90
3752;DHT22;50827;47.014;7.652;2023-04-01T04:20:45;8.40;99.90
3752;DHT22;50827;47.014;7.652;2023-04-01T04:23:17;8.40;99.90
3752;DHT22;50827;47.014;7.652;2023-04-01T04:26:05;8.50;99.90
3752;DHT22;50827;47.014;7.652;2023-04-01T04:28:33;8.50;99.90
3752;DHT22;50827;47.014;7.652;2023-04-01T04:31:00;8.50;99.90
3752;DHT22;50827;47.014;7.652;2023-04-01T04:33:27;8.40;99.90
3752;DHT22;50827;47.014;7.652;2023-04-01T04:35:58;8.50;99.90
3752;DHT22;50827;47.014;7.652;2023-04-01T04:38:26;8.50;99.90
3752;DHT22;50827;47.014;7.652;2023-04-01T04:40:53;8.40;99.90
3752;DHT22;50827;47.014;7.652;2023-04-01T04:43:20;8.40;99.90
3752;DHT22;50827;47.014;7.652;2023-04-01T04:45:46;8.40;99.90
3752;DHT22;50827;47.014;7.652;2023-04-01T04:48:15;8.50;99.90
3752;DHT22;50827;47.014;7.652;2023-04-01T04:50:46;8.40;99.90
3752;DHT22;50827;47.014;7.652;2023-04-01T04:53:15;8.40;99.90
3752;DHT22;50827;47.014;7.652;2023-04-01T04:55:44;8.40;99.90
3752;DHT22;50827;47.014;7.652;2023-04-01T04:58:11;8.30;99.90
3752;DHT22;50827;47.014;7.652;2023-04-01T05:00:38;8.30;99.90
3752;DHT22;50827;47.014;7.652;2023-04-01T05:03:05;8.30;99.90
3752;DHT22;50827;47.014;7.652;2023-04-01T05:05:31;8.30;99.90
3752;DHT22;50827;47.014;7.652;2023-04-01T05:07:58;8.30;99.90
3752;DHT22;50827;47.014;7.652;2023-04-01T05:10:25;8.20;99.90
3752;DHT22;50827;47.014;7.652;2023-04-01T05:12:52;8.30;99.90
3752;DHT22;50827;47.014;7.652;2023-04-01T05:15:19;8.20;99.90
3752;DHT22;50827;47.014;7.652;2023-04-01T05:17:45;8.20;99.90
3752;DHT22;50827;47.014;7.652;2023-04-01T05:20:13;8.30;99.90
3752;DHT22;50827;47.014;7.652;2023-04-01T05:22:40;8.30;99.90
3752;DHT22;50827;47.014;7.652;2023-04-01T05:25:07;8.30;99.90
3752;DHT22;50827;47.014;7.652;2023-04-01T05:27:34;8.30;99.90
3752;DHT22;50827;47.014;7.652;2023-04-01T05:30:01;8.30;99.90
3752;DHT22;50827;47.014;7.652;2023-04-01T05:32:28;8.40;99.90
3752;DHT22;50827;47.014;7.652;2023-04-01T05:34:54;8.30;99.90
3752;DHT22;50827;47.014;7.652;2023-04-01T05:37:21;8.40;99.90
3752;DHT22;50827;47.014;7.652;2023-04-01T05:39:49;8.30;99.90
3752;DHT22;50827;47.014;7.652;2023-04-01T05:42:16;8.40;99.90
3752;DHT22;50827;47.014;7.652;2023-04-01T05:44:43;8.40;99.90
3752;DHT22;50827;47.014;7.652;2023-04-01T05:47:09;8.40;99.90
3752;DHT22;50827;47.014;7.652;2023-04-01T05:49:36;8.40;99.90
3752;DHT22;50827;47.014;7.652;2023-04-01T05:52:03;8.40;99.90
3752;DHT22;50827;47.014;7.652;2023-04-01T05:54:29;8.40;99.90
3752;DHT22;50827;47.014;7.652;2023-04-01T05:56:56;8.50;99.90
3752;DHT22;50827;47.014;7.652;2023-04-01T05:59:23;8.60;99.90
3752;DHT22;50827;47.014;7.652;2023-04-01T06:01:49;8.60;99.90
3752;DHT22;50827;47.014;7.652;2023-04-01T06:04:17;8.60;99.90
3752;DHT22;50827;47.014;7.652;2023-04-01T06:06:44;8.60;99.90
3752;DHT22;50827;47.014;7.652;2023-04-01T06:09:27;8.60;99.90
3752;DHT22;50827;47.014;7.652;2023-04-01T06:15:17;8.70;99.90
3752;DHT22;50827;47.014;7.652;2023-04-01T06:20:26;8.70;99.90
3752;DHT22;50827;47.014;7.652;2023-04-01T06:23:06;8.80;99.90
3752;DHT22;50827;47.014;7.652;2023-04-01T06:33:57;8.70;99.90
3752;DHT22;50827;47.014;7.652;2023-04-01T06:39:21;8.60;99.90
3752;DHT22;50827;47.014;7.652;2023-04-01T06:47:18;8.60;99.90
3752;DHT22;50827;47.014;7.652;2023-04-01T06:55:38;8.60;99.90
3752;DHT22;50827;47.014;7.652;2023-04-01T06:58:26;8.50;99.90
3752;DHT22;50827;47.014;7.652;2023-04-01T07:01:02;8.60;99.90
3752;DHT22;50827;47.014;7.652;2023-04-01T07:03:33;8.60;99.90
3752;DHT22;50827;47.014;7.652;2023-04-01T07:06:05;8.60;99.90
3752;DHT22;50827;47.014;7.652;2023-04-01T07:08:37;8.60;99.90
3752;DHT22;50827;47.014;7.652;2023-04-01T07:11:10;8.70;99.90
3752;DHT22;50827;47.014;7.652;2023-04-01T07:13:53;8.80;99.90
3752;DHT22;50827;47.014;7.652;2023-04-01T07:16:26;8.80;99.90
3752;DHT22;50827;47.014;7.652;2023-04-01T07:19:45;8.80;99.90
3752;DHT22;50827;47.014;7.652;2023-04-01T07:24:51;8.90;99.90
3752;DHT22;50827;47.014;7.652;2023-04-01T07:27:19;9.00;99.90
3752;DHT22;50827;47.014;7.652;2023-04-01T07:29:45;9.00;99.90
3752;DHT22;50827;47.014;7.652;2023-04-01T07:35:19;9.00;99.90
3752;DHT22;50827;47.014;7.652;2023-04-01T07:38:38;8.90;99.90
3752;DHT22;50827;47.014;7.652;2023-04-01T07:41:06;9.00;99.90
3752;DHT22;50827;47.014;7.652;2023-04-01T07:46:17;9.10;99.90
3752;DHT22;50827;47.014;7.652;2023-04-01T07:49:17;9.20;99.90
3752;DHT22;50827;47.014;7.652;2023-04-01T07:57:22;9.10;99.90
3752;DHT22;50827;47.014;7.652;2023-04-01T08:00:05;9.10;99.90
3752;DHT22;50827;47.014;7.652;2023-04-01T08:02:41;9.20;99.90
3752;DHT22;50827;47.014;7.652;2023-04-01T08:05:26;9.20;99.90
3752;DHT22;50827;47.014;7.652;2023-04-01T08:08:28;9.20;99.90
3752;DHT22;50827;47.014;7.652;2023-04-01T08:11:08;9.10;99.90
3752;DHT22;50827;47.014;7.652;2023-04-01T08:14:13;9.10;99.90
3752;DHT22;50827;47.014;7.652;2023-04-01T08:21:52;9.20;99.90
3752;DHT22;50827;47.014;7.652;2023-04-01T08:24:35;9.10;99.90
3752;DHT22;50827;47.014;7.652;2023-04-01T08:27:21;8.90;99.90
3752;DHT22;50827;47.014;7.652;2023-04-01T08:30:02;9.10;99.90
3752;DHT22;50827;47.014;7.652;2023-04-01T08:32:36;9.00;99.90
3752;DHT22;50827;47.014;7.652;2023-04-01T08:35:29;9.00;99.90
3752;DHT22;50827;47.014;7.652;2023-04-01T08:38:04;9.00;99.90
3752;DHT22;50827;47.014;7.652;2023-04-01T08:41:01;9.10;99.90
3752;DHT22;50827;47.014;7.652;2023-04-01T08:55:19;9.40;99.90
3752;DHT22;50827;47.014;7.652;2023-04-01T09:03:37;9.30;99.90
3752;DHT22;50827;47.014;7.652;2023-04-01T09:09:33;9.50;99.90
3752;DHT22;50827;47.014;7.652;2023-04-01T09:15:20;9.60;99.90
3752;DHT22;50827;47.014;7.652;2023-04-01T09:37:15;9.90;99.90
3752;DHT22;50827;47.014;7.652;2023-04-01T09:40:13;10.00;99.90
3752;DHT22;50827;47.014;7.652;2023-04-01T09:48:21;10.00;99.90
3752;DHT22;50827;47.014;7.652;2023-04-01T09:51:05;10.10;99.90
3752;DHT22;50827;47.014;7.652;2023-04-01T09:53:45;10.20;99.90
3752;DHT22;50827;47.014;7.652;2023-04-01T10:01:55;10.30;99.90
3752;DHT22;50827;47.014;7.652;2023-04-01T10:16:42;10.20;99.90
3752;DHT22;50827;47.014;7.652;2023-04-01T10:41:35;10.60;99.90
3752;DHT22;50827;47.014;7.652;2023-04-01T10:47:24;10.80;99.90
3752;DHT22;50827;47.014;7.652;2023-04-01T10:53:05;11.00;99.90
3752;DHT22;50827;47.014;7.652;2023-04-01T10:58:22;11.10;99.90
3752;DHT22;50827;47.014;7.652;2023-04-01T11:09:50;11.20;99.90
3752;DHT22;50827;47.014;7.652;2023-04-01T11:12:51;11.20;99.90
3752;DHT22;50827;47.014;7.652;2023-04-01T11:15:41;11.40;99.90
3752;DHT22;50827;47.014;7.652;2023-04-01T11:29:49;11.20;99.90
3752;DHT22;50827;47.014;7.652;2023-04-01T11:35:55;11.30;99.90
3752;DHT22;50827;47.014;7.652;2023-04-01T11:41:27;11.50;99.90
3752;DHT22;50827;47.014;7.652;2023-04-01T11:49:56;11.70;99.90
3752;DHT22;50827;47.014;7.652;2023-04-01T11:55:23;11.40;99.90
3752;DHT22;50827;47.014;7.652;2023-04-01T12:06:14;11.60;99.90
3752;DHT22;50827;47.014;7.652;2023-04-01T12:09:46;11.70;99.90
3752;DHT22;50827;47.014;7.652;2023-04-01T12:20:33;11.80;99.90
3752;DHT22;50827;47.014;7.652;2023-04-01T12:26:33;11.90;99.90
3752;DHT22;50827;47.014;7.652;2023-04-01T12:29:14;12.00;99.90
3752;DHT22;50827;47.014;7.652;2023-04-01T12:34:59;12.10;99.90
3752;DHT22;50827;47.014;7.652;2023-04-01T12:37:46;12.10;99.90
3752;DHT22;50827;47.014;7.652;2023-04-01T12:40:49;12.10;99.90
3752;DHT22;50827;47.014;7.652;2023-04-01T12:43:42;12.20;99.90
3752;DHT22;50827;47.014;7.652;2023-04-01T12:46:39;12.40;99.90
3752;DHT22;50827;47.014;7.652;2023-04-01T12:55:40;12.60;99.90
3752;DHT22;50827;47.014;7.652;2023-04-01T13:12:17;12.20;99.90
3752;DHT22;50827;47.014;7.652;2023-04-01T13:29:22;12.90;99.90
3752;DHT22;50827;47.014;7.652;2023-04-01T13:34:55;12.80;99.90
3752;DHT22;50827;47.014;7.652;2023-04-01T13:46:06;12.70;99.90
3752;DHT22;50827;47.014;7.652;2023-04-01T13:54:13;13.10;99.90
3752;DHT22;50827;47.014;7.652;2023-04-01T13:57:02;12.80;99.90
3752;DHT22;50827;47.014;7.652;2023-04-01T14:05:02;12.90;99.90
3752;DHT22;50827;47.014;7.652;2023-04-01T14:10:28;12.80;99.90
3752;DHT22;50827;47.014;7.652;2023-04-01T14:23:42;12.60;99.90
3752;DHT22;50827;47.014;7.652;2023-04-01T14:26:35;12.50;99.90
3752;DHT22;50827;47.014;7.652;2023-04-01T14:32:12;12.50;99.90
3752;DHT22;50827;47.014;7.652;2023-04-01T14:51:18;12.90;99.90
3752;DHT22;50827;47.014;7.652;2023-04-01T14:54:03;13.00;99.90
3752;DHT22;50827;47.014;7.652;2023-04-01T14:56:47;13.10;99.90
3752;DHT22;50827;47.014;7.652;2023-04-01T14:59:26;13.00;99.90
3752;DHT22;50827;47.014;7.652;2023-04-01T15:02:03;13.10;99.90
3752;DHT22;50827;47.014;7.652;2023-04-01T15:04:47;13.00;99.90
3752;DHT22;50827;47.014;7.652;2023-04-01T15:16:06;13.00;99.90
3752;DHT22;50827;47.014;7.652;2023-04-01T15:19:01;12.70;99.90
3752;DHT22;50827;47.014;7.652;2023-04-01T15:24:42;12.00;99.90
3752;DHT22;50827;47.014;7.652;2023-04-01T15:27:20;11.80;99.90
3752;DHT22;50827;47.014;7.652;2023-04-01T15:30:01;11.70;99.90
3752;DHT22;50827;47.014;7.652;2023-04-01T15:32:38;11.50;99.90
3752;DHT22;50827;47.014;7.652;2023-04-01T15:38:08;11.10;99.90
3752;DHT22;50827;47.014;7.652;2023-04-01T15:40:53;11.20;99.90
3752;DHT22;50827;47.014;7.652;2023-04-01T15:43:27;11.40;99.90
3752;DHT22;50827;47.014;7.652;2023-04-01T15:49:15;11.50;99.90
3752;DHT22;50827;47.014;7.652;2023-04-01T15:51:47;11.60;99.90
3752;DHT22;50827;47.014;7.652;2023-04-01T15:54:25;11.60;99.90
3752;DHT22;50827;47.014;7.652;2023-04-01T15:57:11;11.60;99.90
3752;DHT22;50827;47.014;7.652;2023-04-01T15:59:58;11.70;99.90
3752;DHT22;50827;47.014;7.652;2023-04-01T16:02:38;11.70;99.90
3752;DHT22;50827;47.014;7.652;2023-04-01T16:05:14;11.80;99.90
3752;DHT22;50827;47.014;7.652;2023-04-01T16:07:57;11.90;99.90
3752;DHT22;50827;47.014;7.652;2023-04-01T16:22:13;12.00;99.90
3752;DHT22;50827;47.014;7.652;2023-04-01T16:27:58;12.00;99.90
3752;DHT22;50827;47.014;7.652;2023-04-01T16:30:36;12.00;99.90
3752;DHT22;50827;47.014;7.652;2023-04-01T16:33:14;11.90;99.90
3752;DHT22;50827;47.014;7.652;2023-04-01T16:36:06;11.90;99.90
3752;DHT22;50827;47.014;7.652;2023-04-01T16:41:31;11.90;99.90
3752;DHT22;50827;47.014;7.652;2023-04-01T16:44:20;11.90;99.90
3752;DHT22;50827;47.014;7.652;2023-04-01T16:46:55;12.00;99.90
3752;DHT22;50827;47.014;7.652;2023-04-01T16:57:47;12.00;99.90
3752;DHT22;50827;47.014;7.652;2023-04-01T17:00:36;12.10;99.90
3752;DHT22;50827;47.014;7.652;2023-04-01T17:11:13;12.10;99.90
3752;DHT22;50827;47.014;7.652;2023-04-01T17:13:49;12.10;99.90
3752;DHT22;50827;47.014;7.652;2023-04-01T17:16:23;12.00;99.90
3752;DHT22;50827;47.014;7.652;2023-04-01T17:33:19;11.70;99.90
3752;DHT22;50827;47.014;7.652;2023-04-01T17:36:01;11.60;99.90
3752;DHT22;50827;47.014;7.652;2023-04-01T17:52:59;11.10;99.90
3752;DHT22;50827;47.014;7.652;2023-04-01T17:58:19;11.10;99.90
3752;DHT22;50827;47.014;7.652;2023-04-01T18:00:55;11.10;99.90
3752;DHT22;50827;47.014;7.652;2023-04-01T18:04:02;11.00;99.90
3752;DHT22;50827;47.014;7.652;2023-04-01T18:06:32;11.10;99.90
3752;DHT22;50827;47.014;7.652;2023-04-01T18:09:12;11.00;99.90
3752;DHT22;50827;47.014;7.652;2023-04-01T18:11:48;11.00;99.90
3752;DHT22;50827;47.014;7.652;2023-04-01T18:17:24;11.10;99.90
3752;DHT22;50827;47.014;7.652;2023-04-01T18:22:28;11.00;99.90
3752;DHT22;50827;47.014;7.652;2023-04-01T18:25:12;11.10;99.90
3752;DHT22;50827;47.014;7.652;2023-04-01T18:36:46;11.00;99.90
3752;DHT22;50827;47.014;7.652;2023-04-01T18:39:23;10.90;99.90
3752;DHT22;50827;47.014;7.652;2023-04-01T18:42:30;11.00;99.90
3752;DHT22;50827;47.014;7.652;2023-04-01T18:45:58;11.00;99.90
3752;DHT22;50827;47.014;7.652;2023-04-01T18:54:02;10.80;99.90
3752;DHT22;50827;47.014;7.652;2023-04-01T18:56:34;10.80;99.90
3752;DHT22;50827;47.014;7.652;2023-04-01T18:59:20;10.80;99.90
3752;DHT22;50827;47.014;7.652;2023-04-01T19:04:57;10.70;99.90
3752;DHT22;50827;47.014;7.652;2023-04-01T19:07:41;10.70;99.90
3752;DHT22;50827;47.014;7.652;2023-04-01T19:21:33;10.30;99.90
3752;DHT22;50827;47.014;7.652;2023-04-01T19:27:29;10.40;99.90
3752;DHT22;50827;47.014;7.652;2023-04-01T19:32:43;10.30;99.90
3752;DHT22;50827;47.014;7.652;2023-04-01T19:36:09;10.20;99.90
3752;DHT22;50827;47.014;7.652;2023-04-01T19:40:53;9.90;99.90
3752;DHT22;50827;47.014;7.652;2023-04-01T19:48:59;9.60;99.90
3752;DHT22;50827;47.014;7.652;2023-04-01T20:00:28;9.40;99.90
3752;DHT22;50827;47.014;7.652;2023-04-01T20:03:41;9.40;99.90
3752;DHT22;50827;47.014;7.652;2023-04-01T20:11:59;9.40;99.90
3752;DHT22;50827;47.014;7.652;2023-04-01T20:14:28;9.30;99.90
3752;DHT22;50827;47.014;7.652;2023-04-01T20:17:19;9.30;99.90
3752;DHT22;50827;47.014;7.652;2023-04-01T20:25:26;9.30;99.90
3752;DHT22;50827;47.014;7.652;2023-04-01T20:31:49;9.40;99.90
3752;DHT22;50827;47.014;7.652;2023-04-01T20:36:31;9.50;99.90
3752;DHT22;50827;47.014;7.652;2023-04-01T20:44:37;9.10;99.90
3752;DHT22;50827;47.014;7.652;2023-04-01T20:50:53;9.20;99.90
3752;DHT22;50827;47.014;7.652;2023-04-01T20:56:06;9.20;99.90
3752;DHT22;50827;47.014;7.652;2023-04-01T20:58:53;9.10;99.90
3752;DHT22;50827;47.014;7.652;2023-04-01T21:01:47;9.00;99.90
3752;DHT22;50827;47.014;7.652;2023-04-01T21:04:45;8.90;99.90
3752;DHT22;50827;47.014;7.652;2023-04-01T21:16:39;9.00;99.90
3752;DHT22;50827;47.014;7.652;2023-04-01T21:19:17;9.00;99.90
3752;DHT22;50827;47.014;7.652;2023-04-01T21:22:00;9.10;99.90
3752;DHT22;50827;47.014;7.652;2023-04-01T21:30:47;9.00;99.90
3752;DHT22;50827;47.014;7.652;2023-04-01T21:38:19;8.80;99.90
3752;DHT22;50827;47.014;7.652;2023-04-01T21:41:14;8.70;99.90
3752;DHT22;50827;47.014;7.652;2023-04-01T21:43:55;8.70;99.90
3752;DHT22;50827;47.014;7.652;2023-04-01T21:55:01;8.50;99.90
3752;DHT22;50827;47.014;7.652;2023-04-01T21:57:45;8.50;99.90
3752;DHT22;50827;47.014;7.652;2023-04-01T22:05:25;8.50;99.90
3752;DHT22;50827;47.014;7.652;2023-04-01T22:08:35;8.50;99.90
3752;DHT22;50827;47.014;7.652;2023-04-01T22:11:16;8.50;99.90
3752;DHT22;50827;47.014;7.652;2023-04-01T22:17:23;8.50;99.90
3752;DHT22;50827;47.014;7.652;2023-04-01T22:23:19;8.50;99.90
3752;DHT22;50827;47.014;7.652;2023-04-01T22:26:02;8.50;99.90
3752;DHT22;50827;47.014;7.652;2023-04-01T22:31:30;8.50;99.90
3752;DHT22;50827;47.014;7.652;2023-04-01T22:42:31;8.70;99.90
3752;DHT22;50827;47.014;7.652;2023-04-01T22:45:05;8.50;99.90
3752;DHT22;50827;47.014;7.652;2023-04-01T22:50:18;8.60;99.90
3752;DHT22;50827;47.014;7.652;2023-04-01T22:52:48;8.70;99.90
3752;DHT22;50827;47.014;7.652;2023-04-01T22:55:29;8.60;99.90
3752;DHT22;50827;47.014;7.652;2023-04-01T22:58:04;8.50;99.90
3752;DHT22;50827;47.014;7.652;2023-04-01T23:00:35;8.50;99.90
3752;DHT22;50827;47.014;7.652;2023-04-01T23:03:25;8.50;99.90
3752;DHT22;50827;47.014;7.652;2023-04-01T23:05:55;8.40;99.90
3752;DHT22;50827;47.014;7.652;2023-04-01T23:11:26;8.50;99.90
3752;DHT22;50827;47.014;7.652;2023-04-01T23:14:37;8.30;99.90
3752;DHT22;50827;47.014;7.652;2023-04-01T23:17:32;8.40;99.90
3752;DHT22;50827;47.014;7.652;2023-04-01T23:20:15;8.40;99.90
3752;DHT22;50827;47.014;7.652;2023-04-01T23:31:29;8.50;99.90
3752;DHT22;50827;47.014;7.652;2023-04-01T23:33:59;8.50;99.90
3752;DHT22;50827;47.014;7.652;2023-04-01T23:36:27;8.50;99.90
3752;DHT22;50827;47.014;7.652;2023-04-01T23:38:54;8.50;99.90
3752;DHT22;50827;47.014;7.652;2023-04-01T23:41:29;8.60;99.90
3752;DHT22;50827;47.014;7.652;2023-04-01T23:46:28;8.60;99.90
3752;DHT22;50827;47.014;7.652;2023-04-01T23:48:55;8.60;99.90
3752;DHT22;50827;47.014;7.652;2023-04-01T23:51:35;8.50;99.90
3752;DHT22;50827;47.014;7.652;2023-04-01T23:54:15;8.50;99.90
3752;DHT22;50827;47.014;7.652;2023-04-01T23:56:53;8.60;99.90
3752;DHT22;50827;47.014;7.652;2023-04-01T23:59:30;8.50;99.90
